sensor_id;sensor_type;location;lat;lon;timestamp;temperature;humidity
10472;DHT22;5283;48.876;8.962;2023-11-19T00:01:33;7.60;99.90
10472;DHT22;5283;48.876;8.962;2023-11-19T00:04:00;7.60;99.90
10472;DHT22;5283;48.876;8.962;2023-11-19T00:06:27;7.60;99.90
10472;DHT22;5283;48.876;8.962;2023-11-19T00:08:54;7.60;99.90
10472;DHT22;5283;48.876;8.962;2023-11-19T00:11:21;7.70;99.90
10472;DHT22;5283;48.876;8.962;2023-11-19T00:13:48;7.70;99.90
10472;DHT22;5283;48.876;8.962;2023-11-19T00:16:15;7.70;99.90
10472;DHT22;5283;48.876;8.962;2023-11-19T00:18:43;7.70;99.90
10472;DHT22;5283;48.876;8.962;2023-11-19T00:21:09;7.80;99.90
10472;DHT22;5283;48.876;8.962;2023-11-19T00:23:37;7.80;99.90
10472;DHT22;5283;48.876;8.962;2023-11-19T00:26:04;8.10;99.90
10472;DHT22;5283;48.876;8.962;2023-11-19T00:28:33;8.20;99.90
10472;DHT22;5283;48.876;8.962;2023-11-19T00:31:00;8.30;99.90
10472;DHT22;5283;48.876;8.962;2023-11-19T00:33:28;8.40;99.90
10472;DHT22;5283;48.876;8.962;2023-11-19T00:35:55;8.40;99.90
10472;DHT22;5283;48.876;8.962;2023-11-19T00:38:22;8.50;99.90
10472;DHT22;5283;48.876;8.962;2023-11-19T00:40:49;8.70;99.90
10472;DHT22;5283;48.876;8.962;2023-11-19T00:43:16;8.70;99.90
10472;DHT22;5283;48.876;8.962;2023-11-19T00:45:42;8.70;99.90
10472;DHT22;5283;48.876;8.962;2023-11-19T00:48:09;8.70;99.90
10472;DHT22;5283;48.876;8.962;2023-11-19T00:50:36;8.80;99.90
10472;DHT22;5283;48.876;8.962;2023-11-19T00:53:03;8.90;99.90
10472;DHT22;5283;48.876;8.962;2023-11-19T00:55:30;9.00;99.90
10472;DHT22;5283;48.876;8.962;2023-11-19T00:57:57;9.20;99.90
10472;DHT22;5283;48.876;8.962;2023-11-19T01:00:24;9.30;99.90
10472;DHT22;5283;48.876;8.962;2023-11-19T01:02:53;9.30;99.90
10472;DHT22;5283;48.876;8.962;2023-11-19T01:05:20;9.30;99.90
10472;DHT22;5283;48.876;8.962;2023-11-19T01:07:50;9.30;99.90
10472;DHT22;5283;48.876;8.962;2023-11-19T01:10:20;9.30;99.90
10472;DHT22;5283;48.876;8.962;2023-11-19T01:12:47;9.40;99.90
10472;DHT22;5283;48.876;8.962;2023-11-19T01:15:13;9.50;99.90
10472;DHT22;5283;48.876;8.962;2023-11-19T01:17:40;9.40;99.90
10472;DHT22;5283;48.876;8.962;2023-11-19T01:20:17;9.50;99.90
10472;DHT22;5283;48.876;8.962;2023-11-19T01:22:44;9.50;99.90
10472;DHT22;5283;48.876;8.962;2023-11-19T01:25:11;9.50;99.90
10472;DHT22;5283;48.876;8.962;2023-11-19T01:27:37;9.50;99.90
10472;DHT22;5283;48.876;8.962;2023-11-19T01:30:06;9.50;99.90
10472;DHT22;5283;48.876;8.962;2023-11-19T01:32:36;9.50;99.90
10472;DHT22;5283;48.876;8.962;2023-11-19T01:35:03;9.60;99.90
10472;DHT22;5283;48.876;8.962;2023-11-19T01:37:30;9.60;99.90
10472;DHT22;5283;48.876;8.962;2023-11-19T01:39:58;9.60;99.90
10472;DHT22;5283;48.876;8.962;2023-11-19T01:42:25;9.70;99.90
10472;DHT22;5283;48.876;8.962;2023-11-19T01:44:58;9.70;99.90
10472;DHT22;5283;48.876;8.962;2023-11-19T01:47:26;9.70;99.90
10472;DHT22;5283;48.876;8.962;2023-11-19T01:49:56;9.70;99.90
10472;DHT22;5283;48.876;8.962;2023-11-19T01:52:25;9.70;99.90
10472;DHT22;5283;48.876;8.962;2023-11-19T01:54:53;9.70;99.90
10472;DHT22;5283;48.876;8.962;2023-11-19T01:57:22;9.70;99.90
10472;DHT22;5283;48.876;8.962;2023-11-19T01:59:50;9.70;99.90
10472;DHT22;5283;48.876;8.962;2023-11-19T02:02:19;9.70;99.90
10472;DHT22;5283;48.876;8.962;2023-11-19T02:04:50;9.70;99.90
10472;DHT22;5283;48.876;8.962;2023-11-19T02:07:17;9.70;99.90
10472;DHT22;5283;48.876;8.962;2023-11-19T02:09:44;9.70;99.90
10472;DHT22;5283;48.876;8.962;2023-11-19T02:12:11;9.70;99.90
10472;DHT22;5283;48.876;8.962;2023-11-19T02:14:41;9.60;99.90
10472;DHT22;5283;48.876;8.962;2023-11-19T02:17:28;9.70;99.90
10472;DHT22;5283;48.876;8.962;2023-11-19T02:19:55;9.60;99.90
10472;DHT22;5283;48.876;8.962;2023-11-19T02:22:22;9.70;99.90
10472;DHT22;5283;48.876;8.962;2023-11-19T02:24:51;9.70;99.90
10472;DHT22;5283;48.876;8.962;2023-11-19T02:27:45;9.70;99.90
10472;DHT22;5283;48.876;8.962;2023-11-19T02:30:13;9.70;99.90
10472;DHT22;5283;48.876;8.962;2023-11-19T02:32:41;9.80;99.90
10472;DHT22;5283;48.876;8.962;2023-11-19T02:35:09;9.80;99.90
10472;DHT22;5283;48.876;8.962;2023-11-19T02:37:35;9.80;99.90
10472;DHT22;5283;48.876;8.962;2023-11-19T02:40:02;9.80;99.90
10472;DHT22;5283;48.876;8.962;2023-11-19T02:42:30;9.80;99.90
10472;DHT22;5283;48.876;8.962;2023-11-19T02:44:57;9.80;99.90
10472;DHT22;5283;48.876;8.962;2023-11-19T02:47:25;9.80;99.90
10472;DHT22;5283;48.876;8.962;2023-11-19T02:49:51;9.80;99.90
10472;DHT22;5283;48.876;8.962;2023-11-19T02:52:19;9.80;99.90
10472;DHT22;5283;48.876;8.962;2023-11-19T02:54:46;9.70;99.90
10472;DHT22;5283;48.876;8.962;2023-11-19T02:57:12;9.70;99.90
10472;DHT22;5283;48.876;8.962;2023-11-19T02:59:47;9.60;99.90
10472;DHT22;5283;48.876;8.962;2023-11-19T03:02:14;9.50;99.90
10472;DHT22;5283;48.876;8.962;2023-11-19T03:04:42;9.50;99.90
10472;DHT22;5283;48.876;8.962;2023-11-19T03:07:10;9.50;99.90
10472;DHT22;5283;48.876;8.962;2023-11-19T03:09:37;9.50;99.90
10472;DHT22;5283;48.876;8.962;2023-11-19T03:12:07;9.30;99.90
10472;DHT22;5283;48.876;8.962;2023-11-19T03:14:33;9.30;99.90
10472;DHT22;5283;48.876;8.962;2023-11-19T03:17:03;9.20;99.90
10472;DHT22;5283;48.876;8.962;2023-11-19T03:19:31;9.20;99.90
10472;DHT22;5283;48.876;8.962;2023-11-19T03:21:58;9.10;99.90
10472;DHT22;5283;48.876;8.962;2023-11-19T03:24:26;9.00;99.90
10472;DHT22;5283;48.876;8.962;2023-11-19T03:26:52;8.90;99.90
10472;DHT22;5283;48.876;8.962;2023-11-19T03:29:19;8.70;99.90
10472;DHT22;5283;48.876;8.962;2023-11-19T03:31:46;8.70;99.90
10472;DHT22;5283;48.876;8.962;2023-11-19T03:34:12;8.60;99.90
10472;DHT22;5283;48.876;8.962;2023-11-19T03:36:39;8.60;99.90
10472;DHT22;5283;48.876;8.962;2023-11-19T03:39:06;8.60;99.90
10472;DHT22;5283;48.876;8.962;2023-11-19T03:41:33;8.70;99.90
10472;DHT22;5283;48.876;8.962;2023-11-19T03:44:02;8.70;99.90
10472;DHT22;5283;48.876;8.962;2023-11-19T03:46:29;8.80;99.90
10472;DHT22;5283;48.876;8.962;2023-11-19T03:48:56;8.80;99.90
10472;DHT22;5283;48.876;8.962;2023-11-19T03:51:23;8.80;99.90
10472;DHT22;5283;48.876;8.962;2023-11-19T03:53:49;8.80;99.90
10472;DHT22;5283;48.876;8.962;2023-11-19T03:56:16;8.90;99.90
10472;DHT22;5283;48.876;8.962;2023-11-19T03:58:43;8.90;99.90
10472;DHT22;5283;48.876;8.962;2023-11-19T04:01:12;8.90;99.90
10472;DHT22;5283;48.876;8.962;2023-11-19T04:03:40;8.90;99.90
10472;DHT22;5283;48.876;8.962;2023-11-19T04:06:16;8.90;99.90
10472;DHT22;5283;48.876;8.962;2023-11-19T04:08:42;9.00;99.90
10472;DHT22;5283;48.876;8.962;2023-11-19T04:11:10;9.00;99.90
10472;DHT22;5283;48.876;8.962;2023-11-19T04:13:37;9.10;99.90
10472;DHT22;5283;48.876;8.962;2023-11-19T04:16:03;9.10;99.90
10472;DHT22;5283;48.876;8.962;2023-11-19T04:18:31;9.20;99.90
10472;DHT22;5283;48.876;8.962;2023-11-19T04:20:58;9.10;99.90
10472;DHT22;5283;48.876;8.962;2023-11-19T04:23:25;9.10;99.90
10472;DHT22;5283;48.876;8.962;2023-11-19T04:25:51;9.10;99.90
10472;DHT22;5283;48.876;8.962;2023-11-19T04:28:18;9.10;99.90
10472;DHT22;5283;48.876;8.962;2023-11-19T04:30:45;9.10;99.90
10472;DHT22;5283;48.876;8.962;2023-11-19T04:33:12;9.10;99.90
10472;DHT22;5283;48.876;8.962;2023-11-19T04:35:38;9.20;99.90
10472;DHT22;5283;48.876;8.962;2023-11-19T04:38:05;9.30;99.90
10472;DHT22;5283;48.876;8.962;2023-11-19T04:40:32;9.40;99.90
10472;DHT22;5283;48.876;8.962;2023-11-19T04:43:00;9.70;99.90
10472;DHT22;5283;48.876;8.962;2023-11-19T04:45:26;9.90;99.90
10472;DHT22;5283;48.876;8.962;2023-11-19T04:47:53;10.20;99.90
10472;DHT22;5283;48.876;8.962;2023-11-19T04:50:20;10.20;99.90
10472;DHT22;5283;48.876;8.962;2023-11-19T04:52:46;10.30;99.90
10472;DHT22;5283;48.876;8.962;2023-11-19T04:55:13;10.80;99.90
10472;DHT22;5283;48.876;8.962;2023-11-19T04:57:40;11.00;99.90
10472;DHT22;5283;48.876;8.962;2023-11-19T05:00:07;11.00;99.90
10472;DHT22;5283;48.876;8.962;2023-11-19T05:02:37;11.20;99.90
10472;DHT22;5283;48.876;8.962;2023-11-19T05:05:04;11.40;99.90
10472;DHT22;5283;48.876;8.962;2023-11-19T05:07:31;11.60;99.90
10472;DHT22;5283;48.876;8.962;2023-11-19T05:09:58;11.70;99.90
10472;DHT22;5283;48.876;8.962;2023-11-19T05:12:25;12.00;99.90
10472;DHT22;5283;48.876;8.962;2023-11-19T05:14:51;12.10;99.90
10472;DHT22;5283;48.876;8.962;2023-11-19T05:17:18;12.10;99.90
10472;DHT22;5283;48.876;8.962;2023-11-19T05:19:45;12.10;99.90
10472;DHT22;5283;48.876;8.962;2023-11-19T05:22:12;12.10;99.90
10472;DHT22;5283;48.876;8.962;2023-11-19T05:24:39;12.20;99.90
10472;DHT22;5283;48.876;8.962;2023-11-19T05:27:07;12.20;99.90
10472;DHT22;5283;48.876;8.962;2023-11-19T05:29:34;12.20;99.90
10472;DHT22;5283;48.876;8.962;2023-11-19T05:32:01;12.20;99.90
10472;DHT22;5283;48.876;8.962;2023-11-19T05:34:27;12.30;99.90
10472;DHT22;5283;48.876;8.962;2023-11-19T05:36:55;12.30;99.90
10472;DHT22;5283;48.876;8.962;2023-11-19T05:39:21;12.30;99.90
10472;DHT22;5283;48.876;8.962;2023-11-19T05:41:48;12.30;99.90
10472;DHT22;5283;48.876;8.962;2023-11-19T05:44:15;12.30;99.90
10472;DHT22;5283;48.876;8.962;2023-11-19T05:46:42;12.30;99.90
10472;DHT22;5283;48.876;8.962;2023-11-19T05:49:10;12.40;99.90
10472;DHT22;5283;48.876;8.962;2023-11-19T05:51:37;12.40;99.90
10472;DHT22;5283;48.876;8.962;2023-11-19T05:54:07;12.30;99.90
10472;DHT22;5283;48.876;8.962;2023-11-19T05:56:34;12.20;99.90
10472;DHT22;5283;48.876;8.962;2023-11-19T05:59:01;12.20;99.90
10472;DHT22;5283;48.876;8.962;2023-11-19T06:01:30;12.10;99.90
10472;DHT22;5283;48.876;8.962;2023-11-19T06:03:56;12.10;99.90
10472;DHT22;5283;48.876;8.962;2023-11-19T06:06:23;12.10;99.90
10472;DHT22;5283;48.876;8.962;2023-11-19T06:08:50;12.10;99.90
10472;DHT22;5283;48.876;8.962;2023-11-19T06:11:17;12.00;99.90
10472;DHT22;5283;48.876;8.962;2023-11-19T06:13:46;12.00;99.90
10472;DHT22;5283;48.876;8.962;2023-11-19T06:16:14;11.90;99.90
10472;DHT22;5283;48.876;8.962;2023-11-19T06:18:41;12.00;99.90
10472;DHT22;5283;48.876;8.962;2023-11-19T06:21:08;12.10;99.90
10472;DHT22;5283;48.876;8.962;2023-11-19T06:23:34;12.10;99.90
10472;DHT22;5283;48.876;8.962;2023-11-19T06:26:01;12.10;99.90
10472;DHT22;5283;48.876;8.962;2023-11-19T06:28:28;12.00;99.90
10472;DHT22;5283;48.876;8.962;2023-11-19T06:30:54;11.90;99.90
10472;DHT22;5283;48.876;8.962;2023-11-19T06:33:21;11.90;99.90
10472;DHT22;5283;48.876;8.962;2023-11-19T06:35:49;12.00;99.90
10472;DHT22;5283;48.876;8.962;2023-11-19T06:38:16;12.00;99.90
10472;DHT22;5283;48.876;8.962;2023-11-19T06:40:42;12.00;99.90
10472;DHT22;5283;48.876;8.962;2023-11-19T06:43:09;12.00;99.90
10472;DHT22;5283;48.876;8.962;2023-11-19T06:45:37;12.00;99.90
10472;DHT22;5283;48.876;8.962;2023-11-19T06:48:04;12.10;99.90
10472;DHT22;5283;48.876;8.962;2023-11-19T06:50:32;12.20;99.90
10472;DHT22;5283;48.876;8.962;2023-11-19T06:52:59;12.20;99.90
10472;DHT22;5283;48.876;8.962;2023-11-19T06:55:26;12.10;99.90
10472;DHT22;5283;48.876;8.962;2023-11-19T06:57:53;12.20;99.90
10472;DHT22;5283;48.876;8.962;2023-11-19T07:00:20;12.10;99.90
10472;DHT22;5283;48.876;8.962;2023-11-19T07:02:46;12.10;99.90
10472;DHT22;5283;48.876;8.962;2023-11-19T07:05:13;12.00;99.90
10472;DHT22;5283;48.876;8.962;2023-11-19T07:07:40;12.00;99.90
10472;DHT22;5283;48.876;8.962;2023-11-19T07:10:07;12.00;99.90
10472;DHT22;5283;48.876;8.962;2023-11-19T07:12:36;12.00;99.90
10472;DHT22;5283;48.876;8.962;2023-11-19T07:15:03;12.00;99.90
10472;DHT22;5283;48.876;8.962;2023-11-19T07:17:30;12.00;99.90
10472;DHT22;5283;48.876;8.962;2023-11-19T07:19:57;11.90;99.90
10472;DHT22;5283;48.876;8.962;2023-11-19T07:22:27;11.90;99.90
10472;DHT22;5283;48.876;8.962;2023-11-19T07:24:56;11.90;99.90
10472;DHT22;5283;48.876;8.962;2023-11-19T07:27:23;11.80;99.90
10472;DHT22;5283;48.876;8.962;2023-11-19T07:29:50;11.80;99.90
10472;DHT22;5283;48.876;8.962;2023-11-19T07:32:17;11.70;99.90
10472;DHT22;5283;48.876;8.962;2023-11-19T07:34:45;11.70;99.90
10472;DHT22;5283;48.876;8.962;2023-11-19T07:37:12;11.70;99.90
10472;DHT22;5283;48.876;8.962;2023-11-19T07:39:39;11.70;99.90
10472;DHT22;5283;48.876;8.962;2023-11-19T07:42:07;11.70;99.90
10472;DHT22;5283;48.876;8.962;2023-11-19T07:44:35;11.70;99.90
10472;DHT22;5283;48.876;8.962;2023-11-19T07:47:03;11.70;99.90
10472;DHT22;5283;48.876;8.962;2023-11-19T07:49:30;11.70;99.90
10472;DHT22;5283;48.876;8.962;2023-11-19T07:51:57;11.70;99.90
10472;DHT22;5283;48.876;8.962;2023-11-19T07:54:24;11.70;99.90
10472;DHT22;5283;48.876;8.962;2023-11-19T07:56:51;11.70;99.90
10472;DHT22;5283;48.876;8.962;2023-11-19T07:59:18;11.70;99.90
10472;DHT22;5283;48.876;8.962;2023-11-19T08:01:44;11.70;99.90
10472;DHT22;5283;48.876;8.962;2023-11-19T08:04:11;11.70;99.90
10472;DHT22;5283;48.876;8.962;2023-11-19T08:06:38;11.60;99.90
10472;DHT22;5283;48.876;8.962;2023-11-19T08:09:05;11.60;99.90
10472;DHT22;5283;48.876;8.962;2023-11-19T08:11:33;11.60;99.90
10472;DHT22;5283;48.876;8.962;2023-11-19T08:14:00;11.60;99.90
10472;DHT22;5283;48.876;8.962;2023-11-19T08:16:26;11.70;99.90
10472;DHT22;5283;48.876;8.962;2023-11-19T08:18:53;11.80;99.90
10472;DHT22;5283;48.876;8.962;2023-11-19T08:21:20;11.90;99.90
10472;DHT22;5283;48.876;8.962;2023-11-19T08:23:49;12.10;99.90
10472;DHT22;5283;48.876;8.962;2023-11-19T08:26:16;12.30;99.90
10472;DHT22;5283;48.876;8.962;2023-11-19T08:28:45;12.40;99.90
10472;DHT22;5283;48.876;8.962;2023-11-19T08:31:12;12.50;99.90
10472;DHT22;5283;48.876;8.962;2023-11-19T08:33:39;12.50;99.90
10472;DHT22;5283;48.876;8.962;2023-11-19T08:36:06;12.50;99.90
10472;DHT22;5283;48.876;8.962;2023-11-19T08:38:33;12.60;99.90
10472;DHT22;5283;48.876;8.962;2023-11-19T08:41:00;12.60;99.90
10472;DHT22;5283;48.876;8.962;2023-11-19T08:43:27;12.80;99.90
10472;DHT22;5283;48.876;8.962;2023-11-19T08:45:54;12.90;99.90
10472;DHT22;5283;48.876;8.962;2023-11-19T08:48:20;12.90;99.90
10472;DHT22;5283;48.876;8.962;2023-11-19T08:50:47;13.00;99.90
10472;DHT22;5283;48.876;8.962;2023-11-19T08:53:14;13.00;99.90
10472;DHT22;5283;48.876;8.962;2023-11-19T08:55:41;13.00;99.90
10472;DHT22;5283;48.876;8.962;2023-11-19T08:58:08;13.20;99.90
10472;DHT22;5283;48.876;8.962;2023-11-19T09:00:35;13.10;99.90
10472;DHT22;5283;48.876;8.962;2023-11-19T09:03:02;13.20;99.90
10472;DHT22;5283;48.876;8.962;2023-11-19T09:05:29;13.50;99.90
10472;DHT22;5283;48.876;8.962;2023-11-19T09:07:56;13.70;99.90
10472;DHT22;5283;48.876;8.962;2023-11-19T09:10:22;13.90;99.90
10472;DHT22;5283;48.876;8.962;2023-11-19T09:12:49;13.90;99.90
10472;DHT22;5283;48.876;8.962;2023-11-19T09:15:16;13.80;99.90
10472;DHT22;5283;48.876;8.962;2023-11-19T09:17:43;13.80;99.90
10472;DHT22;5283;48.876;8.962;2023-11-19T09:20:10;13.80;99.90
10472;DHT22;5283;48.876;8.962;2023-11-19T09:22:39;13.80;99.90
10472;DHT22;5283;48.876;8.962;2023-11-19T09:25:06;13.90;99.90
10472;DHT22;5283;48.876;8.962;2023-11-19T09:27:33;13.90;99.90
10472;DHT22;5283;48.876;8.962;2023-11-19T09:29:59;13.80;99.90
10472;DHT22;5283;48.876;8.962;2023-11-19T09:32:26;13.70;99.90
10472;DHT22;5283;48.876;8.962;2023-11-19T09:34:53;13.60;99.90
10472;DHT22;5283;48.876;8.962;2023-11-19T09:37:20;13.70;99.90
10472;DHT22;5283;48.876;8.962;2023-11-19T09:39:47;13.70;99.90
10472;DHT22;5283;48.876;8.962;2023-11-19T09:42:14;13.80;99.90
10472;DHT22;5283;48.876;8.962;2023-11-19T09:44:42;13.80;99.90
10472;DHT22;5283;48.876;8.962;2023-11-19T09:47:11;14.10;99.90
10472;DHT22;5283;48.876;8.962;2023-11-19T09:49:38;14.20;99.90
10472;DHT22;5283;48.876;8.962;2023-11-19T09:52:05;14.20;99.90
10472;DHT22;5283;48.876;8.962;2023-11-19T09:54:32;14.40;99.90
10472;DHT22;5283;48.876;8.962;2023-11-19T09:56:59;14.30;99.90
10472;DHT22;5283;48.876;8.962;2023-11-19T09:59:30;14.30;99.90
10472;DHT22;5283;48.876;8.962;2023-11-19T10:01:59;14.50;99.90
10472;DHT22;5283;48.876;8.962;2023-11-19T10:04:29;14.50;99.90
10472;DHT22;5283;48.876;8.962;2023-11-19T10:06:56;14.70;99.90
10472;DHT22;5283;48.876;8.962;2023-11-19T10:09:23;15.00;99.90
10472;DHT22;5283;48.876;8.962;2023-11-19T10:11:50;14.90;99.90
10472;DHT22;5283;48.876;8.962;2023-11-19T10:14:19;14.80;99.90
10472;DHT22;5283;48.876;8.962;2023-11-19T10:16:49;14.70;99.90
10472;DHT22;5283;48.876;8.962;2023-11-19T10:19:19;14.70;99.90
10472;DHT22;5283;48.876;8.962;2023-11-19T10:21:50;14.80;99.90
10472;DHT22;5283;48.876;8.962;2023-11-19T10:24:16;15.00;99.90
10472;DHT22;5283;48.876;8.962;2023-11-19T10:26:57;15.00;99.90
10472;DHT22;5283;48.876;8.962;2023-11-19T10:29:24;15.00;99.90
10472;DHT22;5283;48.876;8.962;2023-11-19T10:31:57;15.00;99.90
10472;DHT22;5283;48.876;8.962;2023-11-19T10:34:27;15.10;99.90
10472;DHT22;5283;48.876;8.962;2023-11-19T10:36:54;15.10;99.90
10472;DHT22;5283;48.876;8.962;2023-11-19T10:39:21;15.10;99.90
10472;DHT22;5283;48.876;8.962;2023-11-19T10:41:49;15.20;99.90
10472;DHT22;5283;48.876;8.962;2023-11-19T10:44:34;15.20;99.90
10472;DHT22;5283;48.876;8.962;2023-11-19T10:47:06;15.20;99.90
10472;DHT22;5283;48.876;8.962;2023-11-19T10:49:34;15.20;99.90
10472;DHT22;5283;48.876;8.962;2023-11-19T10:52:02;15.30;99.90
10472;DHT22;5283;48.876;8.962;2023-11-19T10:54:30;15.30;99.90
10472;DHT22;5283;48.876;8.962;2023-11-19T10:56:59;15.40;99.90
10472;DHT22;5283;48.876;8.962;2023-11-19T10:59:31;15.20;99.90
10472;DHT22;5283;48.876;8.962;2023-11-19T11:02:03;15.30;99.90
10472;DHT22;5283;48.876;8.962;2023-11-19T11:04:33;15.40;99.90
10472;DHT22;5283;48.876;8.962;2023-11-19T11:07:07;15.30;99.90
10472;DHT22;5283;48.876;8.962;2023-11-19T11:09:35;15.40;99.90
10472;DHT22;5283;48.876;8.962;2023-11-19T11:12:03;15.40;99.90
10472;DHT22;5283;48.876;8.962;2023-11-19T11:14:30;15.10;99.90
10472;DHT22;5283;48.876;8.962;2023-11-19T11:16:59;14.90;99.90
10472;DHT22;5283;48.876;8.962;2023-11-19T11:19:26;14.90;99.90
10472;DHT22;5283;48.876;8.962;2023-11-19T11:21:54;15.10;99.90
10472;DHT22;5283;48.876;8.962;2023-11-19T11:32:33;15.50;99.90
10472;DHT22;5283;48.876;8.962;2023-11-19T11:35:19;15.50;99.90
10472;DHT22;5283;48.876;8.962;2023-11-19T11:38:00;15.20;99.90
10472;DHT22;5283;48.876;8.962;2023-11-19T11:40:27;15.40;99.90
10472;DHT22;5283;48.876;8.962;2023-11-19T11:42:54;15.40;99.90
10472;DHT22;5283;48.876;8.962;2023-11-19T11:45:37;15.20;99.90
10472;DHT22;5283;48.876;8.962;2023-11-19T11:48:10;15.10;99.90
10472;DHT22;5283;48.876;8.962;2023-11-19T11:50:54;15.30;99.90
10472;DHT22;5283;48.876;8.962;2023-11-19T11:53:23;15.30;99.90
10472;DHT22;5283;48.876;8.962;2023-11-19T11:58:22;15.40;99.90
10472;DHT22;5283;48.876;8.962;2023-11-19T12:00:52;15.50;99.90
10472;DHT22;5283;48.876;8.962;2023-11-19T12:03:22;15.60;99.90
10472;DHT22;5283;48.876;8.962;2023-11-19T12:05:49;15.60;99.90
10472;DHT22;5283;48.876;8.962;2023-11-19T12:08:20;15.60;99.90
10472;DHT22;5283;48.876;8.962;2023-11-19T12:10:55;15.70;99.90
10472;DHT22;5283;48.876;8.962;2023-11-19T12:13:42;15.80;99.90
10472;DHT22;5283;48.876;8.962;2023-11-19T12:16:10;15.90;99.90
10472;DHT22;5283;48.876;8.962;2023-11-19T12:18:39;15.80;99.90
10472;DHT22;5283;48.876;8.962;2023-11-19T12:21:07;15.80;99.90
10472;DHT22;5283;48.876;8.962;2023-11-19T12:23:44;15.80;99.90
10472;DHT22;5283;48.876;8.962;2023-11-19T12:26:55;15.70;99.90
10472;DHT22;5283;48.876;8.962;2023-11-19T12:29:16;15.50;99.90
10472;DHT22;5283;48.876;8.962;2023-11-19T12:31:44;15.30;99.90
10472;DHT22;5283;48.876;8.962;2023-11-19T12:34:11;15.60;99.90
10472;DHT22;5283;48.876;8.962;2023-11-19T12:36:39;15.70;99.90
10472;DHT22;5283;48.876;8.962;2023-11-19T12:39:06;15.60;99.90
10472;DHT22;5283;48.876;8.962;2023-11-19T12:41:48;15.70;99.90
10472;DHT22;5283;48.876;8.962;2023-11-19T12:44:15;15.80;99.90
10472;DHT22;5283;48.876;8.962;2023-11-19T12:46:42;15.90;99.90
10472;DHT22;5283;48.876;8.962;2023-11-19T12:49:11;16.00;99.90
10472;DHT22;5283;48.876;8.962;2023-11-19T12:51:38;15.90;99.90
10472;DHT22;5283;48.876;8.962;2023-11-19T12:54:04;15.80;99.90
10472;DHT22;5283;48.876;8.962;2023-11-19T12:56:31;15.70;99.90
10472;DHT22;5283;48.876;8.962;2023-11-19T12:59:10;15.80;99.90
10472;DHT22;5283;48.876;8.962;2023-11-19T13:01:38;15.90;99.90
10472;DHT22;5283;48.876;8.962;2023-11-19T13:04:17;15.90;99.90
10472;DHT22;5283;48.876;8.962;2023-11-19T13:06:45;16.00;99.90
10472;DHT22;5283;48.876;8.962;2023-11-19T13:09:30;16.10;99.90
10472;DHT22;5283;48.876;8.962;2023-11-19T13:11:57;16.20;99.90
10472;DHT22;5283;48.876;8.962;2023-11-19T13:14:36;16.30;99.90
10472;DHT22;5283;48.876;8.962;2023-11-19T13:17:04;16.50;99.90
10472;DHT22;5283;48.876;8.962;2023-11-19T13:19:32;16.50;99.90
10472;DHT22;5283;48.876;8.962;2023-11-19T13:21:58;16.30;99.90
10472;DHT22;5283;48.876;8.962;2023-11-19T13:24:25;15.80;99.90
10472;DHT22;5283;48.876;8.962;2023-11-19T13:26:52;15.60;99.90
10472;DHT22;5283;48.876;8.962;2023-11-19T13:29:18;15.50;99.90
10472;DHT22;5283;48.876;8.962;2023-11-19T13:31:45;15.60;99.90
10472;DHT22;5283;48.876;8.962;2023-11-19T13:34:12;15.40;99.90
10472;DHT22;5283;48.876;8.962;2023-11-19T13:36:38;15.40;99.90
10472;DHT22;5283;48.876;8.962;2023-11-19T13:39:05;15.50;99.90
10472;DHT22;5283;48.876;8.962;2023-11-19T13:41:33;15.40;99.90
10472;DHT22;5283;48.876;8.962;2023-11-19T13:44:00;15.30;99.90
10472;DHT22;5283;48.876;8.962;2023-11-19T13:46:27;15.30;99.90
10472;DHT22;5283;48.876;8.962;2023-11-19T13:48:54;15.30;99.90
10472;DHT22;5283;48.876;8.962;2023-11-19T13:51:20;15.30;99.90
10472;DHT22;5283;48.876;8.962;2023-11-19T13:53:47;15.30;99.90
10472;DHT22;5283;48.876;8.962;2023-11-19T13:56:17;15.30;99.90
10472;DHT22;5283;48.876;8.962;2023-11-19T13:58:43;15.20;99.90
10472;DHT22;5283;48.876;8.962;2023-11-19T14:01:10;15.10;99.90
10472;DHT22;5283;48.876;8.962;2023-11-19T14:03:40;15.10;99.90
10472;DHT22;5283;48.876;8.962;2023-11-19T14:06:08;15.10;99.90
10472;DHT22;5283;48.876;8.962;2023-11-19T14:08:36;15.00;99.90
10472;DHT22;5283;48.876;8.962;2023-11-19T14:11:02;14.80;99.90
10472;DHT22;5283;48.876;8.962;2023-11-19T14:13:30;14.80;99.90
10472;DHT22;5283;48.876;8.962;2023-11-19T14:15:56;14.80;99.90
10472;DHT22;5283;48.876;8.962;2023-11-19T14:18:23;14.70;99.90
10472;DHT22;5283;48.876;8.962;2023-11-19T14:20:50;14.70;99.90
10472;DHT22;5283;48.876;8.962;2023-11-19T14:23:17;14.60;99.90
10472;DHT22;5283;48.876;8.962;2023-11-19T14:25:44;14.50;99.90
10472;DHT22;5283;48.876;8.962;2023-11-19T14:28:10;14.60;99.90
10472;DHT22;5283;48.876;8.962;2023-11-19T14:30:37;14.60;99.90
10472;DHT22;5283;48.876;8.962;2023-11-19T14:33:04;14.50;99.90
10472;DHT22;5283;48.876;8.962;2023-11-19T14:35:31;14.50;99.90
10472;DHT22;5283;48.876;8.962;2023-11-19T14:38:00;14.30;99.90
10472;DHT22;5283;48.876;8.962;2023-11-19T14:40:27;14.30;99.90
10472;DHT22;5283;48.876;8.962;2023-11-19T14:42:59;14.30;99.90
10472;DHT22;5283;48.876;8.962;2023-11-19T14:45:25;14.10;99.90
10472;DHT22;5283;48.876;8.962;2023-11-19T14:47:53;14.00;99.90
10472;DHT22;5283;48.876;8.962;2023-11-19T14:50:20;13.90;99.90
10472;DHT22;5283;48.876;8.962;2023-11-19T14:52:47;13.80;99.90
10472;DHT22;5283;48.876;8.962;2023-11-19T14:55:14;13.80;99.90
10472;DHT22;5283;48.876;8.962;2023-11-19T14:57:40;13.80;99.90
10472;DHT22;5283;48.876;8.962;2023-11-19T15:00:10;13.80;99.90
10472;DHT22;5283;48.876;8.962;2023-11-19T15:02:42;13.80;99.90
10472;DHT22;5283;48.876;8.962;2023-11-19T15:05:09;13.80;99.90
10472;DHT22;5283;48.876;8.962;2023-11-19T15:07:37;13.70;99.90
10472;DHT22;5283;48.876;8.962;2023-11-19T15:10:04;13.40;99.90
10472;DHT22;5283;48.876;8.962;2023-11-19T15:12:39;13.50;99.90
10472;DHT22;5283;48.876;8.962;2023-11-19T15:15:08;13.30;99.90
10472;DHT22;5283;48.876;8.962;2023-11-19T15:17:41;13.40;99.90
10472;DHT22;5283;48.876;8.962;2023-11-19T15:20:08;13.30;99.90
10472;DHT22;5283;48.876;8.962;2023-11-19T15:22:35;13.30;99.90
10472;DHT22;5283;48.876;8.962;2023-11-19T15:25:01;13.30;99.90
10472;DHT22;5283;48.876;8.962;2023-11-19T15:27:29;13.30;99.90
10472;DHT22;5283;48.876;8.962;2023-11-19T15:29:56;13.10;99.90
10472;DHT22;5283;48.876;8.962;2023-11-19T15:32:22;13.00;99.90
10472;DHT22;5283;48.876;8.962;2023-11-19T15:34:49;12.80;99.90
10472;DHT22;5283;48.876;8.962;2023-11-19T15:37:16;12.90;99.90
10472;DHT22;5283;48.876;8.962;2023-11-19T15:39:43;12.80;99.90
10472;DHT22;5283;48.876;8.962;2023-11-19T15:42:09;12.70;99.90
10472;DHT22;5283;48.876;8.962;2023-11-19T15:44:37;12.50;99.90
10472;DHT22;5283;48.876;8.962;2023-11-19T15:47:05;12.20;99.90
10472;DHT22;5283;48.876;8.962;2023-11-19T15:49:31;11.80;99.90
10472;DHT22;5283;48.876;8.962;2023-11-19T15:51:58;11.50;99.90
10472;DHT22;5283;48.876;8.962;2023-11-19T15:54:26;11.40;99.90
10472;DHT22;5283;48.876;8.962;2023-11-19T15:56:52;11.20;99.90
10472;DHT22;5283;48.876;8.962;2023-11-19T15:59:19;11.40;99.90
10472;DHT22;5283;48.876;8.962;2023-11-19T16:01:47;11.70;99.90
10472;DHT22;5283;48.876;8.962;2023-11-19T16:04:14;11.50;99.90
10472;DHT22;5283;48.876;8.962;2023-11-19T16:06:41;11.50;99.90